Pollock, Louisiana
Current Conditions -  °F | °C
As of 9:53 AM on Friday 31 Oct 2014 (Local Time) from KESF Reporting Station
Clear Clear  
Wind Chill: 63°   Ceiling: Unl
Heat Index: 63°   Visibility: 10mi
Dew Point: 46°   Wind: 9mph
Humidity: 54%   Direction: 360°N
Pressure: 30.14"   Gusts: NA
Location:  31.53°N, 92.41°W
Report Text: KESF 311453Z AUTO 36008KT 330V040 10SM CLR 17/08 A3014 RMK AO2 SLP204 T01720078 51020
Loading
Personal Weather Stations






























Interactive Weather Map
Tropical Storm Tracking
New forecast layout! Learn more

10-Day Weather Forecast

Advertisements
Track Severe Weather on mobile